Theux, Belgium
Current Conditions -  °F | °C
As of 2:25 AM on Thursday 23 Oct 2014 (Local Time) from EBLB Reporting Station
Broken Clouds Broken Clouds  
Wind Chill:   Ceiling: 400
Heat Index:   Visibility: 2.9mi
Dew Point:   Wind: 7mph
Humidity: 100%   Direction: 290°WNW
Pressure: 30.21"   Gusts: NA
Location:  50.53°N, 5.81°E
Report Text: EBLB 230025Z AUTO 29006KT 4700 BKN004/// BKN007/// 05/05 Q1023 YLO
Loading
Personal Weather Stations






























Interactive Weather Map
Tropical Storm Tracking
New forecast layout! Learn more

10-Day Weather Forecast

Advertisements
Track Severe Weather on mobile